Time;durP1;ratioP1;P1;durP2;ratioP2;P2;SDS_P1;SDS_P2;PMS_P1;PMS_P2;Temp;Humidity;BMP_temperature;BMP_pressure;BME280_temperature;BME280_humidity;BME280_pressure;Samples;Min_cycle;Max_cycle;Signal;HPM_P1;HPM_P2
2021/03/09 00:02:05;;;;;;;25.43;14.47;;;;;;;;;;4991884;28;20328;-84
2021/03/09 00:04:30;;;;;;;34.23;15.90;;;;;;;;;;4978747;28;20018;-84
2021/03/09 00:06:55;;;;;;;42.40;15.40;;;;;;;;;;5001934;28;20279;-84
2021/03/09 00:09:21;;;;;;;29.00;13.57;;;;;;;;;;4981300;28;21030;-84
2021/03/09 00:11:46;;;;;;;36.67;16.57;;;;;;;;;;4976726;28;20030;-84
2021/03/09 00:14:14;;;;;;;31.60;15.10;;;;;;;;;;4986427;28;20271;-84
2021/03/09 00:16:42;;;;;;;37.47;17.83;;;;;;;;;;4979624;28;20259;-84
2021/03/09 00:19:07;;;;;;;34.22;16.08;;;;;;;;;;4995830;28;20105;-85
2021/03/09 00:21:32;;;;;;;36.17;17.53;;;;;;;;;;4982008;28;20050;-84
2021/03/09 00:23:57;;;;;;;31.33;15.88;;;;;;;;;;4990817;28;20267;-85
2021/03/09 00:26:22;;;;;;;35.97;17.73;;;;;;;;;;4983088;28;20065;-85
2021/03/09 00:28:48;;;;;;;35.58;16.63;;;;;;;;;;4986050;28;20027;-85
2021/03/09 00:31:13;;;;;;;38.17;19.27;;;;;;;;;;4996881;28;20046;-84
2021/03/09 00:33:38;;;;;;;38.33;17.53;;;;;;;;;;4979976;28;20422;-84
2021/03/09 00:36:04;;;;;;;43.03;18.48;;;;;;;;;;4995145;28;20054;-84
2021/03/09 00:38:29;;;;;;;38.33;17.90;;;;;;;;;;4979356;28;20113;-83
2021/03/09 00:40:54;;;;;;;39.00;18.87;;;;;;;;;;4972377;28;20101;-83
2021/03/09 00:43:19;;;;;;;36.40;18.00;;;;;;;;;;4981888;28;20707;-84
2021/03/09 00:45:44;;;;;;;39.07;18.80;;;;;;;;;;4983256;28;20278;-84
2021/03/09 00:48:10;;;;;;;39.30;18.27;;;;;;;;;;4980055;28;20284;-84
2021/03/09 00:50:35;;;;;;;46.67;19.90;;;;;;;;;;4984894;28;20676;-83
2021/03/09 00:53:00;;;;;;;43.80;19.80;;;;;;;;;;4994393;28;20060;-84
2021/03/09 00:55:25;;;;;;;37.38;17.50;;;;;;;;;;4988958;28;20283;-83
2021/03/09 00:57:57;;;;;;;45.70;21.00;;;;;;;;;;4978506;28;20562;-83
2021/03/09 01:00:23;;;;;;;54.95;21.70;;;;;;;;;;4975792;28;20324;-83
2021/03/09 01:02:48;;;;;;;42.45;19.73;;;;;;;;;;4978434;28;20446;-83
2021/03/09 01:05:14;;;;;;;44.50;21.00;;;;;;;;;;4989259;28;20062;-83
2021/03/09 01:07:39;;;;;;;45.70;19.55;;;;;;;;;;4974370;28;20675;-84
2021/03/09 01:10:04;;;;;;;41.75;18.73;;;;;;;;;;5003192;28;20044;-84
2021/03/09 01:12:29;;;;;;;35.35;17.40;;;;;;;;;;4994013;28;20028;-83
2021/03/09 01:14:55;;;;;;;41.70;19.80;;;;;;;;;;4992943;28;20049;-84
2021/03/09 01:17:22;;;;;;;46.90;20.53;;;;;;;;;;4994471;28;20272;-83
2021/03/09 01:19:47;;;;;;;42.95;22.15;;;;;;;;;;4996396;28;20026;-84
2021/03/09 01:22:13;;;;;;;46.63;19.90;;;;;;;;;;4973709;28;20054;-84
2021/03/09 01:24:38;;;;;;;43.37;19.57;;;;;;;;;;4996621;28;20030;-84
2021/03/09 01:27:03;;;;;;;49.37;20.30;;;;;;;;;;4974797;28;20022;-84
2021/03/09 01:29:28;;;;;;;45.83;21.88;;;;;;;;;;4978801;28;20283;-86
2021/03/09 01:31:53;;;;;;;51.50;23.73;;;;;;;;;;4984161;28;20011;-86
2021/03/09 01:34:19;;;;;;;46.80;20.03;;;;;;;;;;4978364;28;20269;-86
2021/03/09 01:36:44;;;;;;;56.95;23.23;;;;;;;;;;4994770;28;20268;-86
2021/03/09 01:39:11;;;;;;;44.47;20.07;;;;;;;;;;4978167;28;20026;-85
2021/03/09 01:41:36;;;;;;;46.22;23.33;;;;;;;;;;4985905;28;20270;-85
2021/03/09 01:44:01;;;;;;;49.38;22.23;;;;;;;;;;4976710;28;20026;-84
2021/03/09 01:46:26;;;;;;;45.23;21.13;;;;;;;;;;4983603;28;20445;-84
2021/03/09 01:48:53;;;;;;;47.35;22.23;;;;;;;;;;4974647;28;20283;-84
2021/03/09 01:51:19;;;;;;;55.72;23.70;;;;;;;;;;4992162;28;20026;-85
2021/03/09 01:53:44;;;;;;;58.20;23.92;;;;;;;;;;4975352;28;20045;-84
2021/03/09 01:56:09;;;;;;;47.85;22.08;;;;;;;;;;4992232;28;20026;-84
2021/03/09 01:58:38;;;;;;;48.40;21.50;;;;;;;;;;5005788;28;20022;-85
2021/03/09 02:01:03;;;;;;;50.30;24.70;;;;;;;;;;4974606;28;20022;-85
2021/03/09 02:03:29;;;;;;;48.77;23.37;;;;;;;;;;4975816;28;20026;-86
2021/03/09 02:05:54;;;;;;;53.22;23.58;;;;;;;;;;4977066;28;20252;-86
2021/03/09 02:08:19;;;;;;;55.55;24.17;;;;;;;;;;4985201;28;20026;-85
2021/03/09 02:10:44;;;;;;;53.83;23.83;;;;;;;;;;4976976;28;20056;-85
2021/03/09 02:13:15;;;;;;;48.87;23.50;;;;;;;;;;4991188;28;20896;-85
2021/03/09 02:16:05;;;;;;;57.63;26.50;;;;;;;;;;4970796;28;20265;-86
2021/03/09 02:18:30;;;;;;;48.63;22.92;;;;;;;;;;4969566;28;20593;-86
2021/03/09 02:21:14;;;;;;;53.45;23.80;;;;;;;;;;4973951;28;20660;-86
2021/03/09 02:23:56;;;;;;;58.78;27.70;;;;;;;;;;4988804;28;20038;-85
2021/03/09 02:26:31;;;;;;;59.05;26.45;;;;;;;;;;4974582;28;20029;-84
2021/03/09 02:29:03;;;;;;;42.33;17.77;;;;;;;;;;4970296;28;20057;-83
2021/03/09 02:31:29;;;;;;;55.67;25.83;;;;;;;;;;4976112;28;20279;-84
2021/03/09 02:33:58;;;;;;;55.78;26.73;;;;;;;;;;4998624;28;20073;-84
2021/03/09 02:36:24;;;;;;;60.42;27.35;;;;;;;;;;4977505;28;20011;-84
2021/03/09 02:39:06;;;;;;;62.22;29.05;;;;;;;;;;4987638;28;20113;-84
2021/03/09 02:41:32;;;;;;;67.35;27.67;;;;;;;;;;4973463;28;20400;-84
2021/03/09 02:43:58;;;;;;;63.47;29.35;;;;;;;;;;4974669;28;20026;-84
2021/03/09 02:46:24;;;;;;;55.03;26.88;;;;;;;;;;4980045;28;20018;-84
2021/03/09 02:48:50;;;;;;;60.22;28.83;;;;;;;;;;4983950;28;20427;-84
2021/03/09 02:51:15;;;;;;;60.20;28.25;;;;;;;;;;4989994;28;20052;-84
2021/03/09 02:53:49;;;;;;;62.55;28.25;;;;;;;;;;4992573;28;20491;-84
2021/03/09 02:56:15;;;;;;;65.40;28.52;;;;;;;;;;4991411;28;20027;-85
2021/03/09 02:58:43;;;;;;;65.43;28.75;;;;;;;;;;4990084;28;20105;-84
2021/03/09 03:01:08;;;;;;;59.08;28.30;;;;;;;;;;4978145;28;20026;-84
2021/03/09 03:03:34;;;;;;;63.10;30.17;;;;;;;;;;4989618;28;20026;-84
2021/03/09 03:06:00;;;;;;;62.42;27.65;;;;;;;;;;4999922;28;20034;-84
2021/03/09 03:08:25;;;;;;;75.15;31.08;;;;;;;;;;4977590;28;20033;-84
2021/03/09 03:10:52;;;;;;;69.25;29.85;;;;;;;;;;4980577;28;20015;-84
2021/03/09 03:13:17;;;;;;;61.55;28.60;;;;;;;;;;4996103;28;20505;-84
2021/03/09 03:15:43;;;;;;;71.15;30.70;;;;;;;;;;4977540;28;20022;-84
2021/03/09 03:18:13;;;;;;;59.00;27.93;;;;;;;;;;4980472;28;20026;-84
2021/03/09 03:20:40;;;;;;;62.10;29.75;;;;;;;;;;4997345;28;20296;-84
2021/03/09 03:23:06;;;;;;;59.67;30.10;;;;;;;;;;4980220;28;20034;-83
2021/03/09 03:25:32;;;;;;;62.50;29.25;;;;;;;;;;4995804;28;20050;-84
2021/03/09 03:27:57;;;;;;;65.00;30.90;;;;;;;;;;4996023;28;20038;-84
2021/03/09 03:30:23;;;;;;;61.38;30.92;;;;;;;;;;4975720;28;20015;-84
2021/03/09 03:32:48;;;;;;;65.30;30.95;;;;;;;;;;4978805;28;20022;-84
2021/03/09 03:35:14;;;;;;;62.50;31.75;;;;;;;;;;4994610;28;20084;-84
2021/03/09 03:37:40;;;;;;;64.78;32.60;;;;;;;;;;4972377;28;20486;-84
2021/03/09 03:40:16;;;;;;;62.45;32.05;;;;;;;;;;4999032;28;20493;-84
2021/03/09 03:42:42;;;;;;;61.92;29.77;;;;;;;;;;4998098;28;20034;-83
2021/03/09 03:45:08;;;;;;;73.65;32.65;;;;;;;;;;4979490;28;20068;-83
2021/03/09 03:47:34;;;;;;;70.55;32.05;;;;;;;;;;4982118;28;20050;-83
2021/03/09 03:49:59;;;;;;;75.93;36.40;;;;;;;;;;4978003;28;20033;-84
2021/03/09 03:52:29;;;;;;;70.23;34.87;;;;;;;;;;4999140;28;20030;-84
2021/03/09 03:54:58;;;;;;;69.32;33.60;;;;;;;;;;4973270;28;20026;-84
2021/03/09 03:57:29;;;;;;;72.95;34.83;;;;;;;;;;4981633;28;20019;-85
2021/03/09 03:59:57;;;;;;;79.43;35.38;;;;;;;;;;4983175;28;20034;-85
2021/03/09 04:02:22;;;;;;;71.72;35.78;;;;;;;;;;4976620;28;20082;-85
2021/03/09 04:04:49;;;;;;;72.43;36.55;;;;;;;;;;4981955;28;20096;-85
2021/03/09 04:07:19;;;;;;;75.85;33.63;;;;;;;;;;4991259;28;20078;-84
2021/03/09 04:09:46;;;;;;;75.45;37.15;;;;;;;;;;5000169;28;20057;-84
2021/03/09 04:12:11;;;;;;;81.63;37.42;;;;;;;;;;4984550;28;20073;-84
2021/03/09 04:14:36;;;;;;;77.55;37.78;;;;;;;;;;4996205;28;20030;-84
2021/03/09 04:17:02;;;;;;;75.72;36.08;;;;;;;;;;4982245;28;20026;-84
2021/03/09 04:19:28;;;;;;;81.65;35.65;;;;;;;;;;4974349;28;20026;-84
2021/03/09 04:21:53;;;;;;;89.97;41.88;;;;;;;;;;4985946;28;20466;-84
2021/03/09 04:24:19;;;;;;;84.80;39.30;;;;;;;;;;4987440;28;20029;-84
2021/03/09 04:26:45;;;;;;;90.32;41.58;;;;;;;;;;5003855;28;20076;-84
2021/03/09 04:29:10;;;;;;;83.22;39.50;;;;;;;;;;4982582;28;20061;-84
2021/03/09 04:31:37;;;;;;;93.32;43.10;;;;;;;;;;4988819;28;20097;-85
2021/03/09 04:34:02;;;;;;;92.35;41.75;;;;;;;;;;4982692;28;20107;-84
2021/03/09 04:36:29;;;;;;;89.63;41.22;;;;;;;;;;4981209;28;20466;-85
2021/03/09 04:38:54;;;;;;;92.00;41.25;;;;;;;;;;4994095;28;20022;-86
2021/03/09 04:41:19;;;;;;;85.37;39.33;;;;;;;;;;4981194;28;20030;-85
2021/03/09 04:43:44;;;;;;;94.10;41.90;;;;;;;;;;4983826;28;20640;-86
2021/03/09 04:46:10;;;;;;;93.97;42.07;;;;;;;;;;5011565;28;20034;-86
2021/03/09 04:48:39;;;;;;;91.75;40.38;;;;;;;;;;4984353;28;20276;-85
2021/03/09 04:51:09;;;;;;;89.28;41.25;;;;;;;;;;4979659;28;20030;-86
2021/03/09 04:53:34;;;;;;;95.00;42.95;;;;;;;;;;4983086;28;20094;-85
2021/03/09 04:56:00;;;;;;;92.50;42.80;;;;;;;;;;4986173;28;20517;-85
2021/03/09 04:58:26;;;;;;;93.82;39.80;;;;;;;;;;4988068;28;20030;-85
2021/03/09 05:00:52;;;;;;;97.93;41.75;;;;;;;;;;4990291;28;20027;-84
2021/03/09 05:03:17;;;;;;;104.07;43.42;;;;;;;;;;4978755;28;20093;-85
2021/03/09 05:05:42;;;;;;;97.53;42.83;;;;;;;;;;4982426;28;20170;-86
2021/03/09 05:08:07;;;;;;;97.00;42.43;;;;;;;;;;4983304;28;20065;-85
2021/03/09 05:10:33;;;;;;;97.20;40.37;;;;;;;;;;5000820;28;20255;-85
2021/03/09 05:12:58;;;;;;;102.63;40.40;;;;;;;;;;5005966;28;20023;-86
2021/03/09 05:15:23;;;;;;;86.68;38.80;;;;;;;;;;4981195;28;20257;-86
2021/03/09 05:17:48;;;;;;;92.23;38.63;;;;;;;;;;4979808;28;20409;-86
2021/03/09 05:20:14;;;;;;;78.40;36.10;;;;;;;;;;4978338;28;20322;-84
2021/03/09 05:22:39;;;;;;;79.50;37.03;;;;;;;;;;4979144;28;20319;-84
2021/03/09 05:25:06;;;;;;;70.80;33.05;;;;;;;;;;4978912;28;20027;-84
2021/03/09 05:27:31;;;;;;;79.70;36.47;;;;;;;;;;4975136;28;20022;-85
2021/03/09 05:29:56;;;;;;;79.93;36.00;;;;;;;;;;4975525;28;20112;-85
2021/03/09 05:32:21;;;;;;;78.27;36.63;;;;;;;;;;4979054;28;20070;-84
2021/03/09 05:34:46;;;;;;;71.03;33.65;;;;;;;;;;4996787;28;20033;-85
2021/03/09 05:37:12;;;;;;;69.23;32.77;;;;;;;;;;4991054;28;20031;-84
2021/03/09 05:39:37;;;;;;;84.77;35.67;;;;;;;;;;4973873;28;20612;-83
2021/03/09 05:42:06;;;;;;;76.47;34.13;;;;;;;;;;4973169;28;20596;-84
2021/03/09 05:44:32;;;;;;;63.78;29.65;;;;;;;;;;4968894;28;20034;-84
2021/03/09 05:46:57;;;;;;;69.95;30.80;;;;;;;;;;4968008;28;20050;-83
2021/03/09 05:49:22;;;;;;;63.88;30.48;;;;;;;;;;4965836;28;20039;-83
2021/03/09 05:51:48;;;;;;;57.38;28.95;;;;;;;;;;4969609;28;20031;-84
2021/03/09 05:54:13;;;;;;;68.72;30.73;;;;;;;;;;4973892;28;20022;-82
2021/03/09 05:56:38;;;;;;;62.72;29.20;;;;;;;;;;4973894;28;20102;-83
2021/03/09 05:59:04;;;;;;;58.30;28.27;;;;;;;;;;4966136;28;20038;-82
2021/03/09 06:01:30;;;;;;;63.45;30.52;;;;;;;;;;4972136;28;20269;-84
2021/03/09 06:03:57;;;;;;;60.40;29.13;;;;;;;;;;4967957;28;20077;-84
2021/03/09 06:06:23;;;;;;;56.80;29.98;;;;;;;;;;4981278;28;20039;-81
2021/03/09 06:08:48;;;;;;;64.33;29.20;;;;;;;;;;4976168;28;20058;-82
2021/03/09 06:11:17;;;;;;;69.57;30.58;;;;;;;;;;4960656;28;20819;-84
2021/03/09 06:13:42;;;;;;;59.88;30.80;;;;;;;;;;4976980;28;20027;-83
2021/03/09 06:16:08;;;;;;;63.97;30.00;;;;;;;;;;4978640;28;20057;-84
2021/03/09 06:18:33;;;;;;;58.20;28.52;;;;;;;;;;4967044;28;20087;-85
2021/03/09 06:21:08;;;;;;;61.17;31.80;;;;;;;;;;4981125;28;20084;-85
2021/03/09 06:23:34;;;;;;;61.33;30.95;;;;;;;;;;4994072;28;20263;-85
2021/03/09 06:25:59;;;;;;;60.83;29.15;;;;;;;;;;4982794;28;20018;-85
2021/03/09 06:28:31;;;;;;;59.87;28.73;;;;;;;;;;4991930;28;20383;-85
2021/03/09 06:30:59;;;;;;;56.88;26.50;;;;;;;;;;4998777;28;20258;-87
2021/03/09 06:33:28;;;;;;;52.40;26.58;;;;;;;;;;4986384;28;20030;-85
2021/03/09 06:35:55;;;;;;;48.95;24.27;;;;;;;;;;4975966;28;20090;-85
2021/03/09 06:38:20;;;;;;;45.58;23.20;;;;;;;;;;4985981;28;20030;-86
2021/03/09 06:41:05;;;;;;;40.70;21.27;;;;;;;;;;4981703;28;20030;-85
2021/03/09 06:43:30;;;;;;;43.60;20.40;;;;;;;;;;4987221;28;20275;-85
2021/03/09 06:46:08;;;;;;;38.78;19.55;;;;;;;;;;4987096;28;20038;-86
2021/03/09 06:48:37;;;;;;;34.53;19.67;;;;;;;;;;4985563;28;20026;-85
2021/03/09 06:51:02;;;;;;;40.13;19.77;;;;;;;;;;4986091;28;20022;-86
2021/03/09 06:53:27;;;;;;;37.22;19.08;;;;;;;;;;5004033;28;20081;-85
2021/03/09 06:55:52;;;;;;;39.65;18.23;;;;;;;;;;4996132;28;20101;-86
2021/03/09 06:58:25;;;;;;;40.00;19.63;;;;;;;;;;4988840;28;20037;-85
2021/03/09 07:00:50;;;;;;;27.65;16.02;;;;;;;;;;4983466;28;20287;-85
2021/03/09 07:03:36;;;;;;;28.60;14.03;;;;;;;;;;5011221;28;20041;-85
2021/03/09 07:06:02;;;;;;;28.43;12.40;;;;;;;;;;4983619;28;20629;-85
2021/03/09 07:08:27;;;;;;;24.02;11.93;;;;;;;;;;4993259;28;20268;-85
2021/03/09 07:10:53;;;;;;;25.90;11.93;;;;;;;;;;4977314;28;20498;-85
2021/03/09 07:13:21;;;;;;;22.65;11.18;;;;;;;;;;4996906;28;20022;-85
2021/03/09 07:15:46;;;;;;;21.10;11.27;;;;;;;;;;4988971;28;20036;-85
2021/03/09 07:18:11;;;;;;;21.25;11.75;;;;;;;;;;5013623;28;20104;-85
2021/03/09 07:20:37;;;;;;;24.75;12.02;;;;;;;;;;4991724;28;20019;-85
2021/03/09 07:23:03;;;;;;;19.83;10.13;;;;;;;;;;4994427;28;20026;-86
2021/03/09 07:25:41;;;;;;;36.88;12.45;;;;;;;;;;5013867;28;20021;-84
2021/03/09 07:28:31;;;;;;;23.77;10.95;;;;;;;;;;5014159;28;20010;-83
2021/03/09 07:30:57;;;;;;;24.75;12.05;;;;;;;;;;4995740;28;20053;-82
2021/03/09 07:36:28;;;;;;;30.77;10.93;;;;;;;;;;4996756;28;20018;-81
2021/03/09 07:39:16;;;;;;;28.13;11.60;;;;;;;;;;4998401;28;20718;-83
2021/03/09 07:50:32;;;;;;;21.58;9.70;;;;;;;;;;5195474;23;20136;-83
2021/03/09 08:02:53;;;;;;;25.77;11.07;;;;;;;;;;4908157;29;20534;-83
2021/03/09 08:05:48;;;;;;;21.10;11.38;;;;;;;;;;4903314;29;20110;-83
2021/03/09 08:08:33;;;;;;;31.48;12.07;;;;;;;;;;4906613;29;20040;-81
2021/03/09 08:10:58;;;;;;;27.33;11.30;;;;;;;;;;4905086;29;20028;-83
2021/03/09 08:13:46;;;;;;;25.80;12.23;;;;;;;;;;4885937;29;20500;-84
2021/03/09 08:16:20;;;;;;;23.75;10.75;;;;;;;;;;4910353;29;20050;-83
2021/03/09 08:18:52;;;;;;;34.35;12.88;;;;;;;;;;4911304;29;20021;-81
2021/03/09 08:21:18;;;;;;;33.53;13.52;;;;;;;;;;4906456;29;20405;-83
2021/03/09 08:24:15;;;;;;;28.67;11.60;;;;;;;;;;4905045;29;20035;-84
2021/03/09 08:27:03;;;;;;;27.48;10.38;;;;;;;;;;4924216;28;20444;-83
2021/03/09 08:29:47;;;;;;;;;;;;;;;;;;4912976;29;20090;-84
2021/03/09 08:32:41;;;;;;;;;;;;;;;;;;;;;
2021/03/09 08:35:42;;;;;;;14.30;6.88;;;;;;;;;;4909016;29;20092;-84
2021/03/09 08:38:11;;;;;;;20.42;6.53;;;;;;;;;;4862080;29;20045;-81
2021/03/09 08:40:56;;;;;;;19.30;7.93;;;;;;;;;;4875723;29;20044;-81
2021/03/09 08:43:41;;;;;;;15.98;8.27;;;;;;;;;;4859438;29;20041;-85
2021/03/09 08:46:07;;;;;;;11.75;5.72;;;;;;;;;;4858637;29;20167;-83
2021/03/09 08:48:43;;;;;;;16.05;6.50;;;;;;;;;;4855734;29;20139;-83
2021/03/09 08:51:08;;;;;;;18.38;6.38;;;;;;;;;;4914564;29;20024;-83
2021/03/09 08:53:33;;;;;;;14.98;6.30;;;;;;;;;;4908561;29;20036;-83
2021/03/09 08:56:00;;;;;;;10.05;5.65;;;;;;;;;;4899796;29;20216;-84
2021/03/09 08:58:59;;;;;;;13.70;5.80;;;;;;;;;;4918704;29;20027;-84
2021/03/09 09:01:24;;;;;;;13.35;5.65;;;;;;;;;;4886885;29;20053;-84
2021/03/09 09:03:50;;;;;;;17.67;5.97;;;;;;;;;;4885119;29;20041;-85
2021/03/09 09:06:15;;;;;;;13.47;5.77;;;;;;;;;;4911932;29;20036;-83
2021/03/09 09:09:16;;;;;;;15.57;6.28;;;;;;;;;;4908561;29;20290;-85
2021/03/09 09:12:03;;;;;;;9.38;4.20;;;;;;;;;;4920369;29;20115;-83
2021/03/09 09:15:04;;;;;;;11.68;3.75;;;;;;;;;;4988161;28;20075;-83
2021/03/09 09:17:30;;;;;;;15.43;3.53;;;;;;;;;;5011621;28;20188;-83
2021/03/09 09:19:58;;;;;;;12.23;3.03;;;;;;;;;;5011453;28;20033;-82
2021/03/09 09:22:24;;;;;;;7.78;3.17;;;;;;;;;;5015666;28;20381;-83
2021/03/09 09:25:18;;;;;;;5.03;2.60;;;;;;;;;;5020183;28;20034;-83
2021/03/09 09:28:04;;;;;;;11.40;3.03;;;;;;;;;;4994983;28;20157;-83
2021/03/09 09:30:37;;;;;;;8.75;2.42;;;;;;;;;;4979689;28;20139;-82
2021/03/09 09:33:03;;;;;;;4.20;2.80;;;;;;;;;;5025498;28;20029;-83
2021/03/09 09:35:48;;;;;;;5.85;2.40;;;;;;;;;;5017515;28;20034;-82
2021/03/09 09:41:05;;;;;;;4.10;1.98;;;;;;;;;;4973497;28;20091;-82
2021/03/09 09:43:33;;;;;;;6.50;1.70;;;;;;;;;;4972849;28;20035;-83
2021/03/09 09:46:40;;;;;;;6.97;2.03;;;;;;;;;;4978407;28;20031;-83
2021/03/09 09:49:11;;;;;;;4.55;2.20;;;;;;;;;;4959802;28;20043;-83
2021/03/09 09:52:06;;;;;;;5.40;2.17;;;;;;;;;;4969323;28;20122;-83
2021/03/09 09:57:35;;;;;;;7.78;1.67;;;;;;;;;;4968906;28;20525;-85
2021/03/09 10:00:13;;;;;;;4.25;2.05;;;;;;;;;;4988528;28;20062;-82
2021/03/09 10:02:38;;;;;;;6.88;1.38;;;;;;;;;;4974997;28;20022;-81
2021/03/09 10:05:03;;;;;;;4.65;1.40;;;;;;;;;;4996575;28;20038;-82
2021/03/09 10:07:28;;;;;;;3.15;1.27;;;;;;;;;;4994388;28;20691;-83
2021/03/09 10:10:00;;;;;;;3.40;1.63;;;;;;;;;;4973561;28;20114;-81
2021/03/09 10:12:36;;;;;;;5.00;2.20;;;;;;;;;;4992803;28;20501;-82
2021/03/09 10:15:01;;;;;;;5.40;1.60;;;;;;;;;;4997994;28;20026;-81
2021/03/09 10:17:26;;;;;;;3.45;1.00;;;;;;;;;;5008266;28;20374;-81
2021/03/09 10:19:52;;;;;;;10.60;1.80;;;;;;;;;;5033430;28;20032;-81
2021/03/09 10:22:22;;;;;;;2.50;1.30;;;;;;;;;;5031126;28;20366;-84
2021/03/09 10:24:47;;;;;;;2.80;1.50;;;;;;;;;;5029418;28;20033;-81
2021/03/09 10:27:16;;;;;;;4.10;1.40;;;;;;;;;;5028673;28;20024;-80
2021/03/09 10:29:42;;;;;;;4.38;1.45;;;;;;;;;;5031383;28;20029;-83
2021/03/09 10:32:12;;;;;;;5.57;1.00;;;;;;;;;;5035532;28;20048;-82
2021/03/09 10:34:39;;;;;;;2.80;1.00;;;;;;;;;;5042778;28;20034;-83
2021/03/09 10:37:04;;;;;;;4.13;1.20;;;;;;;;;;5039237;28;20048;-83
2021/03/09 10:39:31;;;;;;;2.85;1.13;;;;;;;;;;5034941;28;20041;-82
2021/03/09 10:41:57;;;;;;;2.10;0.98;;;;;;;;;;5025748;28;20018;-81
2021/03/09 10:44:35;;;;;;;3.05;1.17;;;;;;;;;;5031441;28;20025;-82
2021/03/09 10:47:04;;;;;;;1.33;0.90;;;;;;;;;;5027693;28;20056;-81
2021/03/09 10:52:48;;;;;;;2.08;0.98;;;;;;;;;;5059754;28;20051;-85
2021/03/09 10:55:32;;;;;;;2.72;1.02;;;;;;;;;;5037840;28;20124;-85
2021/03/09 10:58:02;;;;;;;2.55;1.23;;;;;;;;;;4982251;28;20025;-82
2021/03/09 11:00:27;;;;;;;2.38;1.23;;;;;;;;;;4994710;28;20113;-83
2021/03/09 11:02:53;;;;;;;5.47;1.65;;;;;;;;;;4996360;28;20099;-82
2021/03/09 11:05:50;;;;;;;2.70;0.90;;;;;;;;;;4997568;28;20034;-83
2021/03/09 11:08:36;;;;;;;1.38;0.60;;;;;;;;;;5004213;28;20035;-83
2021/03/09 11:11:01;;;;;;;2.28;0.75;;;;;;;;;;5005992;28;20023;-81
2021/03/09 11:13:27;;;;;;;1.90;0.60;;;;;;;;;;5003275;28;20050;-82
2021/03/09 11:16:01;;;;;;;0.65;0.50;;;;;;;;;;5002764;28;20275;-83
2021/03/09 11:19:10;;;;;;;3.77;0.80;;;;;;;;;;5008814;28;20025;-84
2021/03/09 11:22:01;;;;;;;2.35;1.13;;;;;;;;;;5017781;28;20069;-83
2021/03/09 11:27:48;;;;;;;2.88;0.57;;;;;;;;;;5023739;28;20096;-83
2021/03/09 11:30:14;;;;;;;0.63;0.50;;;;;;;;;;5002062;28;20017;-83
2021/03/09 11:32:39;;;;;;;0.98;0.40;;;;;;;;;;5021188;28;20029;-83
2021/03/09 11:35:08;;;;;;;0.50;0.50;;;;;;;;;;5021683;28;20026;-82
2021/03/09 11:37:33;;;;;;;0.70;0.40;;;;;;;;;;5022499;28;20021;-81
2021/03/09 11:40:04;;;;;;;1.23;0.50;;;;;;;;;;5020669;28;20033;-83
2021/03/09 11:42:29;;;;;;;2.40;0.50;;;;;;;;;;5018812;28;20030;-83
2021/03/09 11:44:54;;;;;;;2.10;0.90;;;;;;;;;;5018671;28;20026;-83
2021/03/09 11:47:19;;;;;;;0.65;0.52;;;;;;;;;;5005038;28;20065;-83
2021/03/09 11:49:47;;;;;;;2.05;1.17;;;;;;;;;;5006098;28;20029;-83
2021/03/09 11:52:12;;;;;;;2.88;0.50;;;;;;;;;;5002134;28;20028;-84
2021/03/09 11:54:53;;;;;;;0.30;0.30;;;;;;;;;;5018054;28;20440;-83
2021/03/09 11:57:36;;;;;;;1.77;0.52;;;;;;;;;;5020362;28;20363;-83
2021/03/09 12:00:04;;;;;;;1.10;0.50;;;;;;;;;;5018164;28;20033;-83
2021/03/09 12:02:30;;;;;;;2.58;0.45;;;;;;;;;;5001272;28;20449;-83
2021/03/09 12:05:06;;;;;;;3.30;0.40;;;;;;;;;;5004284;28;20385;-83
2021/03/09 12:07:42;;;;;;;0.65;0.40;;;;;;;;;;5001938;28;20096;-83
2021/03/09 12:10:07;;;;;;;2.75;0.70;;;;;;;;;;5023053;28;20026;-83
2021/03/09 12:12:33;;;;;;;2.10;0.50;;;;;;;;;;5004488;28;20028;-83
2021/03/09 12:14:58;;;;;;;1.70;0.50;;;;;;;;;;5005862;28;20109;-83
2021/03/09 12:17:23;;;;;;;0.80;0.50;;;;;;;;;;5004714;28;20021;-84
2021/03/09 12:19:48;;;;;;;1.03;0.57;;;;;;;;;;5000955;28;20125;-83
2021/03/09 12:22:13;;;;;;;2.70;0.70;;;;;;;;;;5007053;28;20022;-83
2021/03/09 12:24:39;;;;;;;3.33;1.20;;;;;;;;;;5005636;28;20058;-83
2021/03/09 12:27:07;;;;;;;3.33;0.90;;;;;;;;;;4989743;28;20350;-85
2021/03/09 12:29:51;;;;;;;1.38;0.50;;;;;;;;;;5024662;28;20028;-82
2021/03/09 12:32:16;;;;;;;1.15;0.45;;;;;;;;;;5017309;28;20068;-83
2021/03/09 12:34:44;;;;;;;2.22;0.50;;;;;;;;;;5001004;28;20014;-83
2021/03/09 12:37:09;;;;;;;2.95;1.10;;;;;;;;;;5002213;28;20022;-82
2021/03/09 12:40:11;;;;;;;2.38;0.80;;;;;;;;;;5006660;28;20044;-84
2021/03/09 12:42:36;;;;;;;1.25;0.80;;;;;;;;;;5007292;28;20049;-82
2021/03/09 12:45:16;;;;;;;5.25;0.80;;;;;;;;;;5021104;28;20040;-82
2021/03/09 12:47:41;;;;;;;0.70;0.50;;;;;;;;;;5004631;28;20026;-84
2021/03/09 12:50:31;;;;;;;2.63;0.70;;;;;;;;;;5022278;28;20259;-86
2021/03/09 12:53:17;;;;;;;1.30;0.50;;;;;;;;;;5023018;28;20022;-82
2021/03/09 12:55:57;;;;;;;0.50;0.40;;;;;;;;;;5005275;28;20022;-83
2021/03/09 12:58:23;;;;;;;3.13;0.60;;;;;;;;;;5018849;28;20026;-82
2021/03/09 13:01:06;;;;;;;0.55;0.40;;;;;;;;;;4986308;28;20124;-82
2021/03/09 13:03:31;;;;;;;3.97;0.50;;;;;;;;;;4998864;28;20034;-83
2021/03/09 13:05:57;;;;;;;1.27;0.80;;;;;;;;;;5004471;28;20033;-83
2021/03/09 13:08:50;;;;;;;3.80;0.50;;;;;;;;;;5026528;28;20278;-84
2021/03/09 13:11:16;;;;;;;7.03;0.70;;;;;;;;;;4968051;28;20033;-81
2021/03/09 13:13:43;;;;;;;2.10;0.50;;;;;;;;;;5014024;28;20029;-81
2021/03/09 13:16:09;;;;;;;1.88;0.60;;;;;;;;;;5017324;28;20026;-82
2021/03/09 13:18:34;;;;;;;1.13;0.55;;;;;;;;;;5015129;28;20029;-83
2021/03/09 13:20:59;;;;;;;2.25;0.52;;;;;;;;;;4994826;28;20021;-81
2021/03/09 13:23:24;;;;;;;1.73;0.57;;;;;;;;;;5019088;28;20046;-84
2021/03/09 13:25:49;;;;;;;7.30;1.10;;;;;;;;;;5013692;28;20270;-83
2021/03/09 13:28:15;;;;;;;1.00;0.47;;;;;;;;;;5026070;28;20040;-82
2021/03/09 13:30:40;;;;;;;2.72;0.77;;;;;;;;;;5014291;28;20271;-82
2021/03/09 13:33:05;;;;;;;1.23;0.70;;;;;;;;;;4995251;28;20830;-82
2021/03/09 13:35:30;;;;;;;0.83;0.63;;;;;;;;;;4997895;28;20836;-80
2021/03/09 13:37:55;;;;;;;3.17;0.75;;;;;;;;;;5027453;28;20360;-81
2021/03/09 13:40:21;;;;;;;2.87;0.63;;;;;;;;;;4996174;28;20042;-80
2021/03/09 13:43:18;;;;;;;4.05;0.70;;;;;;;;;;5017421;28;20022;-86
2021/03/09 13:45:44;;;;;;;3.00;0.50;;;;;;;;;;5028372;28;20005;-83
2021/03/09 13:48:12;;;;;;;3.15;0.60;;;;;;;;;;5030566;28;20022;-81
2021/03/09 13:50:54;;;;;;;4.05;0.50;;;;;;;;;;5016467;28;20884;-80
2021/03/09 13:53:20;;;;;;;0.70;0.50;;;;;;;;;;5021553;28;20053;-81
2021/03/09 13:55:45;;;;;;;0.70;0.50;;;;;;;;;;5011433;28;20029;-82
2021/03/09 13:58:10;;;;;;;1.13;0.40;;;;;;;;;;5017444;28;20013;-82
2021/03/09 14:00:35;;;;;;;0.97;0.50;;;;;;;;;;5017489;28;20049;-82
2021/03/09 14:03:00;;;;;;;1.40;0.45;;;;;;;;;;5015805;28;20350;-82
2021/03/09 14:05:26;;;;;;;1.73;0.70;;;;;;;;;;4997620;28;20045;-83
2021/03/09 14:07:51;;;;;;;0.70;0.47;;;;;;;;;;4968154;28;20042;-82
2021/03/09 14:10:16;;;;;;;2.30;0.60;;;;;;;;;;5000073;28;20030;-83
2021/03/09 14:12:42;;;;;;;2.00;0.80;;;;;;;;;;4994171;28;20026;-83
2021/03/09 14:15:09;;;;;;;1.40;0.65;;;;;;;;;;4978367;28;20026;-83
2021/03/09 14:17:34;;;;;;;1.80;0.80;;;;;;;;;;4980696;28;20023;-82
2021/03/09 14:20:00;;;;;;;1.98;0.75;;;;;;;;;;4978766;28;20027;-82
2021/03/09 14:22:26;;;;;;;2.33;0.93;;;;;;;;;;5003166;28;20101;-82
2021/03/09 14:24:51;;;;;;;1.05;0.60;;;;;;;;;;4964338;28;20082;-82
2021/03/09 14:27:16;;;;;;;5.55;1.23;;;;;;;;;;4998729;28;20101;-82
2021/03/09 14:29:42;;;;;;;2.95;0.80;;;;;;;;;;4996647;28;20422;-82
2021/03/09 14:32:07;;;;;;;0.73;0.47;;;;;;;;;;4997350;28;20857;-82
2021/03/09 14:34:33;;;;;;;1.87;0.83;;;;;;;;;;5001686;28;20023;-82
2021/03/09 14:37:17;;;;;;;2.47;0.65;;;;;;;;;;5023848;28;20068;-82
2021/03/09 14:39:44;;;;;;;1.05;0.50;;;;;;;;;;4998215;28;20078;-82
2021/03/09 14:42:10;;;;;;;4.70;0.60;;;;;;;;;;4989480;28;20490;-82
2021/03/09 14:44:35;;;;;;;1.90;0.60;;;;;;;;;;4992156;28;20031;-82
2021/03/09 14:47:00;;;;;;;1.07;0.50;;;;;;;;;;4995286;28;20764;-82
2021/03/09 14:49:25;;;;;;;2.08;0.60;;;;;;;;;;4990141;28;20022;-83
2021/03/09 14:51:51;;;;;;;8.02;0.75;;;;;;;;;;4983985;28;20327;-82
2021/03/09 14:54:16;;;;;;;1.53;0.40;;;;;;;;;;4995112;28;20101;-82
2021/03/09 14:56:42;;;;;;;2.15;0.90;;;;;;;;;;4991127;28;20263;-82
2021/03/09 14:59:07;;;;;;;4.65;1.10;;;;;;;;;;4998358;28;20074;-81
2021/03/09 15:01:33;;;;;;;5.75;1.25;;;;;;;;;;5003595;28;20018;-81
2021/03/09 15:03:58;;;;;;;2.38;1.23;;;;;;;;;;5000355;28;20741;-81
2021/03/09 15:06:26;;;;;;;2.30;1.10;;;;;;;;;;4997440;28;20042;-82
2021/03/09 15:08:52;;;;;;;1.95;0.90;;;;;;;;;;4977249;28;20046;-85
2021/03/09 15:11:21;;;;;;;3.28;1.00;;;;;;;;;;5000826;28;20014;-84
2021/03/09 15:13:49;;;;;;;7.30;1.35;;;;;;;;;;5008272;28;20014;-85
2021/03/09 15:16:14;;;;;;;1.95;0.60;;;;;;;;;;4994580;28;20082;-82